Time;durP1;ratioP1;P1;durP2;ratioP2;P2;SDS_P1;SDS_P2;PMS_P1;PMS_P2;Temp;Humidity;BMP_temperature;BMP_pressure;BME280_temperature;BME280_humidity;BME280_pressure;Samples;Min_cycle;Max_cycle;Signal;HPM_P1;HPM_P2
2021/03/08 00:02:07;;;;;;;5.93;1.63;;;;;;;;;;5061041;28;20457;-70
2021/03/08 00:04:35;;;;;;;17.10;3.30;;;;;;;;;;5060923;28;20473;-69
2021/03/08 00:07:03;;;;;;;17.70;3.40;;;;;;;;;;5059883;28;20468;-73
2021/03/08 00:09:31;;;;;;;10.27;2.70;;;;;;;;;;5058872;28;20486;-70
2021/03/08 00:11:58;;;;;;;10.43;3.70;;;;;;;;;;5059884;28;20452;-70
2021/03/08 00:14:26;;;;;;;9.50;2.87;;;;;;;;;;5060403;28;20454;-71
2021/03/08 00:16:54;;;;;;;14.43;3.33;;;;;;;;;;5060114;28;20456;-70
2021/03/08 00:19:22;;;;;;;18.07;4.20;;;;;;;;;;5060871;28;20529;-71
2021/03/08 00:21:53;;;;;;;8.50;3.13;;;;;;;;;;5059536;28;20559;-70
2021/03/08 00:24:20;;;;;;;9.37;2.10;;;;;;;;;;5059612;28;20477;-71
2021/03/08 00:26:49;;;;;;;8.77;2.33;;;;;;;;;;5060142;28;20454;-70
2021/03/08 00:29:18;;;;;;;9.87;3.30;;;;;;;;;;5059358;28;20488;-70
2021/03/08 00:31:46;;;;;;;11.30;3.17;;;;;;;;;;5067254;28;20540;-71
2021/03/08 00:34:21;;;;;;;4.63;2.20;;;;;;;;;;5062439;28;20458;-70
2021/03/08 00:36:49;;;;;;;6.17;2.10;;;;;;;;;;5059542;28;20445;-70
2021/03/08 00:39:16;;;;;;;10.93;3.00;;;;;;;;;;5059733;28;20446;-69
2021/03/08 00:41:44;;;;;;;5.97;2.17;;;;;;;;;;5058920;28;20599;-70
2021/03/08 00:44:11;;;;;;;9.60;2.63;;;;;;;;;;5059370;28;20523;-71
2021/03/08 00:46:39;;;;;;;12.80;2.30;;;;;;;;;;5059563;28;20462;-70
2021/03/08 00:49:06;;;;;;;11.80;3.13;;;;;;;;;;5059133;28;20562;-71
2021/03/08 00:51:35;;;;;;;15.17;4.77;;;;;;;;;;5059861;28;20875;-70
2021/03/08 00:54:02;;;;;;;9.37;4.30;;;;;;;;;;5059312;28;20797;-71
2021/03/08 00:56:29;;;;;;;11.10;2.07;;;;;;;;;;5058223;28;21535;-70
2021/03/08 00:58:59;;;;;;;5.13;2.70;;;;;;;;;;5059743;28;20465;-71
2021/03/08 01:01:29;;;;;;;11.30;2.63;;;;;;;;;;5058930;28;20735;-70
2021/03/08 01:03:56;;;;;;;7.37;2.80;;;;;;;;;;5059410;28;20769;-70
2021/03/08 01:06:24;;;;;;;13.13;2.40;;;;;;;;;;5058916;28;20445;-69
2021/03/08 01:08:53;;;;;;;6.57;2.40;;;;;;;;;;5058621;28;20967;-70
2021/03/08 01:11:20;;;;;;;17.20;3.00;;;;;;;;;;5058482;28;20458;-70
2021/03/08 01:13:48;;;;;;;7.40;1.80;;;;;;;;;;5058279;28;20542;-70
2021/03/08 01:16:15;;;;;;;5.93;2.67;;;;;;;;;;5058449;28;20755;-70
2021/03/08 01:18:43;;;;;;;7.33;2.33;;;;;;;;;;5058837;28;20545;-70
2021/03/08 01:21:11;;;;;;;13.07;2.47;;;;;;;;;;5058644;28;20565;-70
2021/03/08 01:23:39;;;;;;;7.00;1.90;;;;;;;;;;5058937;28;20488;-70
2021/03/08 01:26:07;;;;;;;6.43;2.90;;;;;;;;;;5059408;28;20485;-70
2021/03/08 01:28:37;;;;;;;11.43;1.60;;;;;;;;;;5058296;28;20503;-70
2021/03/08 01:31:07;;;;;;;6.73;2.20;;;;;;;;;;5058459;28;20447;-71
2021/03/08 01:33:34;;;;;;;6.87;2.37;;;;;;;;;;5059074;28;20465;-71
2021/03/08 01:36:02;;;;;;;12.03;1.80;;;;;;;;;;5058383;28;21232;-70
2021/03/08 01:38:29;;;;;;;10.63;2.07;;;;;;;;;;5058960;28;20457;-70
2021/03/08 01:40:57;;;;;;;7.90;2.40;;;;;;;;;;5058663;28;20454;-70
2021/03/08 01:43:28;;;;;;;5.53;1.90;;;;;;;;;;5058676;28;20523;-70
2021/03/08 01:45:56;;;;;;;3.80;1.93;;;;;;;;;;5058713;28;20453;-70
2021/03/08 01:48:23;;;;;;;3.07;1.27;;;;;;;;;;5058270;28;20807;-70
2021/03/08 01:50:52;;;;;;;4.40;2.10;;;;;;;;;;5059392;28;20515;-71
2021/03/08 01:53:22;;;;;;;9.00;2.70;;;;;;;;;;5059157;28;20482;-70
2021/03/08 01:55:50;;;;;;;4.30;1.93;;;;;;;;;;5057787;28;20452;-70
2021/03/08 01:58:21;;;;;;;4.20;2.20;;;;;;;;;;5058897;28;20464;-71
2021/03/08 02:00:51;;;;;;;5.67;2.00;;;;;;;;;;5057229;28;20890;-70
2021/03/08 02:03:19;;;;;;;15.13;2.30;;;;;;;;;;5059202;28;20461;-70
2021/03/08 02:05:47;;;;;;;5.90;2.50;;;;;;;;;;5059364;28;20642;-70
2021/03/08 02:08:16;;;;;;;7.57;2.00;;;;;;;;;;5057490;28;20500;-70
2021/03/08 02:10:47;;;;;;;7.43;2.07;;;;;;;;;;5059133;28;20450;-70
2021/03/08 02:13:42;;;;;;;4.90;2.23;;;;;;;;;;5058750;28;20468;-70
2021/03/08 02:16:12;;;;;;;8.70;3.30;;;;;;;;;;5022476;28;20463;-70
2021/03/08 02:18:44;;;;;;;3.30;1.80;;;;;;;;;;5060138;28;20463;-71
2021/03/08 02:21:25;;;;;;;4.90;1.80;;;;;;;;;;5058619;28;20447;-70
2021/03/08 02:24:11;;;;;;;7.40;1.57;;;;;;;;;;5057738;28;20458;-70
2021/03/08 02:26:51;;;;;;;6.60;2.00;;;;;;;;;;5058567;28;20725;-70
2021/03/08 02:29:39;;;;;;;3.57;1.00;;;;;;;;;;5058276;28;20500;-70
2021/03/08 02:32:10;;;;;;;6.80;2.30;;;;;;;;;;5056996;28;20454;-70
2021/03/08 02:34:40;;;;;;;3.20;1.50;;;;;;;;;;5058370;28;20475;-71
2021/03/08 02:37:12;;;;;;;6.67;1.63;;;;;;;;;;5057028;28;20456;-70
2021/03/08 02:39:42;;;;;;;2.63;1.33;;;;;;;;;;5057104;28;20458;-70
2021/03/08 02:42:15;;;;;;;4.23;1.83;;;;;;;;;;5056546;28;20448;-70
2021/03/08 02:44:43;;;;;;;7.80;2.00;;;;;;;;;;5056974;28;20574;-70
2021/03/08 02:47:12;;;;;;;2.77;1.60;;;;;;;;;;5056740;28;20465;-70
2021/03/08 02:49:43;;;;;;;2.90;1.53;;;;;;;;;;5057665;28;20488;-71
2021/03/08 02:52:11;;;;;;;10.63;1.87;;;;;;;;;;5056832;28;20548;-70
2021/03/08 02:54:40;;;;;;;9.90;2.10;;;;;;;;;;5058022;28;20457;-71
2021/03/08 02:57:09;;;;;;;5.63;1.50;;;;;;;;;;5057324;28;20908;-71
2021/03/08 02:59:38;;;;;;;4.33;1.70;;;;;;;;;;5056815;28;20466;-70
2021/03/08 03:02:07;;;;;;;3.57;1.20;;;;;;;;;;5057459;28;20735;-70
2021/03/08 03:04:38;;;;;;;7.03;1.93;;;;;;;;;;5057931;28;20470;-70
2021/03/08 03:07:06;;;;;;;7.30;1.30;;;;;;;;;;5057074;28;20923;-71
2021/03/08 03:09:34;;;;;;;3.07;1.93;;;;;;;;;;5057479;28;20572;-70
2021/03/08 03:12:03;;;;;;;6.13;1.57;;;;;;;;;;5056419;28;20715;-70
2021/03/08 03:14:31;;;;;;;2.90;1.40;;;;;;;;;;5056162;28;20528;-70
2021/03/08 03:17:27;;;;;;;8.83;1.60;;;;;;;;;;5056950;28;20772;-71
2021/03/08 03:19:58;;;;;;;4.30;1.97;;;;;;;;;;5056875;28;20552;-71
2021/03/08 03:22:29;;;;;;;3.73;1.10;;;;;;;;;;5057386;28;20448;-70
2021/03/08 03:24:58;;;;;;;3.83;1.00;;;;;;;;;;5057238;28;20963;-70
2021/03/08 03:27:29;;;;;;;8.80;1.63;;;;;;;;;;5057069;28;20728;-70
2021/03/08 03:29:57;;;;;;;3.30;1.73;;;;;;;;;;5057027;28;20488;-71
2021/03/08 03:32:25;;;;;;;3.60;1.70;;;;;;;;;;5057612;28;20461;-70
2021/03/08 03:35:00;;;;;;;5.27;1.43;;;;;;;;;;5056324;28;20477;-70
2021/03/08 03:37:28;;;;;;;6.00;1.63;;;;;;;;;;5057680;28;20724;-71
2021/03/08 03:39:55;;;;;;;5.33;1.83;;;;;;;;;;5057243;28;20464;-71
2021/03/08 03:42:23;;;;;;;1.93;1.00;;;;;;;;;;5056173;28;20453;-70
2021/03/08 03:44:54;;;;;;;10.00;1.90;;;;;;;;;;5056971;28;20460;-70
2021/03/08 03:47:22;;;;;;;5.73;1.60;;;;;;;;;;5056891;28;20550;-71
2021/03/08 03:49:49;;;;;;;5.20;1.60;;;;;;;;;;5056984;28;20960;-71
2021/03/08 03:52:18;;;;;;;5.63;1.67;;;;;;;;;;5057309;28;20467;-70
2021/03/08 03:54:48;;;;;;;2.03;1.23;;;;;;;;;;5056092;28;20472;-71
2021/03/08 03:57:16;;;;;;;2.00;1.13;;;;;;;;;;5057661;28;20452;-70
2021/03/08 03:59:46;;;;;;;3.10;1.40;;;;;;;;;;5057426;28;20520;-70
2021/03/08 04:02:15;;;;;;;4.70;1.37;;;;;;;;;;5055858;28;20462;-71
2021/03/08 04:04:46;;;;;;;5.30;1.13;;;;;;;;;;5057378;28;20533;-71
2021/03/08 04:07:15;;;;;;;2.37;1.37;;;;;;;;;;5059904;28;20965;-70
2021/03/08 04:09:46;;;;;;;16.67;2.53;;;;;;;;;;5059341;28;20498;-71
2021/03/08 04:12:14;;;;;;;4.83;1.40;;;;;;;;;;5060083;28;20467;-70
2021/03/08 04:14:43;;;;;;;3.80;1.53;;;;;;;;;;5059543;28;20456;-71
2021/03/08 04:17:18;;;;;;;5.77;1.70;;;;;;;;;;5058624;28;20817;-71
2021/03/08 04:19:49;;;;;;;2.53;1.23;;;;;;;;;;5058314;28;20447;-71
2021/03/08 04:22:19;;;;;;;3.03;1.00;;;;;;;;;;5056504;28;20440;-71
2021/03/08 04:25:12;;;;;;;6.13;1.20;;;;;;;;;;5059296;28;20461;-71
2021/03/08 04:27:58;;;;;;;3.70;1.27;;;;;;;;;;5058774;28;20484;-71
2021/03/08 04:30:40;;;;;;;6.90;2.03;;;;;;;;;;5058966;28;20457;-71
2021/03/08 04:33:10;;;;;;;3.53;1.33;;;;;;;;;;5055586;28;20444;-71
2021/03/08 04:35:39;;;;;;;2.57;1.20;;;;;;;;;;5059991;28;20466;-71
2021/03/08 04:38:25;;;;;;;3.40;1.00;;;;;;;;;;5059953;28;20463;-71
2021/03/08 04:41:21;;;;;;;2.13;0.80;;;;;;;;;;5058886;28;20790;-72
2021/03/08 04:43:49;;;;;;;2.27;1.53;;;;;;;;;;5059038;28;20452;-71
2021/03/08 04:46:17;;;;;;;2.47;0.90;;;;;;;;;;5058889;28;20812;-71
2021/03/08 04:48:44;;;;;;;1.90;0.97;;;;;;;;;;5058391;28;20487;-71
2021/03/08 04:51:12;;;;;;;2.93;1.37;;;;;;;;;;5058633;28;20460;-71
2021/03/08 04:53:42;;;;;;;6.63;1.30;;;;;;;;;;5058534;28;20467;-71
2021/03/08 04:56:11;;;;;;;5.10;1.10;;;;;;;;;;5058750;28;20459;-71
2021/03/08 04:58:40;;;;;;;2.00;1.00;;;;;;;;;;5057047;28;20867;-71
2021/03/08 05:01:12;;;;;;;2.67;1.07;;;;;;;;;;5057994;28;20467;-71
2021/03/08 05:03:41;;;;;;;8.03;1.63;;;;;;;;;;5058135;28;20582;-71
2021/03/08 05:06:08;;;;;;;1.50;0.80;;;;;;;;;;5058693;28;20481;-71
2021/03/08 05:08:36;;;;;;;3.93;2.00;;;;;;;;;;5058542;28;20480;-71
2021/03/08 05:11:04;;;;;;;2.73;1.33;;;;;;;;;;5057724;28;20469;-71
2021/03/08 05:13:33;;;;;;;2.43;1.40;;;;;;;;;;5057702;28;20862;-71
2021/03/08 05:16:02;;;;;;;2.83;1.20;;;;;;;;;;5053120;28;20748;-72
2021/03/08 05:18:29;;;;;;;6.30;1.67;;;;;;;;;;5047536;28;20463;-71
2021/03/08 05:20:58;;;;;;;3.47;1.30;;;;;;;;;;5057989;28;20709;-71
2021/03/08 05:23:25;;;;;;;3.93;1.30;;;;;;;;;;5058204;28;20467;-71
2021/03/08 05:25:54;;;;;;;3.23;1.40;;;;;;;;;;5057891;28;20453;-71
2021/03/08 05:28:21;;;;;;;3.50;1.80;;;;;;;;;;5057764;28;20514;-71
2021/03/08 05:30:54;;;;;;;3.73;1.97;;;;;;;;;;5056854;28;20464;-71
2021/03/08 05:33:28;;;;;;;3.90;1.93;;;;;;;;;;5037671;28;20487;-71
2021/03/08 05:36:03;;;;;;;8.47;1.80;;;;;;;;;;5037856;28;20519;-71
2021/03/08 05:38:31;;;;;;;5.73;2.10;;;;;;;;;;5037273;28;20453;-71
2021/03/08 05:41:07;;;;;;;5.03;1.80;;;;;;;;;;5037667;28;20485;-71
2021/03/08 05:43:35;;;;;;;10.17;3.23;;;;;;;;;;5037989;28;20487;-71
2021/03/08 05:46:06;;;;;;;5.30;1.80;;;;;;;;;;5037297;28;20464;-71
2021/03/08 05:48:46;;;;;;;18.70;2.60;;;;;;;;;;5056723;28;20561;-71
2021/03/08 05:51:29;;;;;;;7.63;1.73;;;;;;;;;;5058986;28;20854;-71
2021/03/08 05:54:21;;;;;;;4.27;1.37;;;;;;;;;;5057264;28;20463;-71
2021/03/08 05:57:12;;;;;;;4.47;1.80;;;;;;;;;;5058174;28;20525;-71
2021/03/08 06:00:06;;;;;;;3.40;2.30;;;;;;;;;;5036508;28;20462;-71
2021/03/08 06:02:45;;;;;;;3.70;1.80;;;;;;;;;;5022641;28;20894;-70
2021/03/08 06:05:25;;;;;;;11.70;2.20;;;;;;;;;;5056855;28;20516;-71
2021/03/08 06:08:09;;;;;;;5.40;2.17;;;;;;;;;;5058312;28;20464;-70
2021/03/08 06:10:37;;;;;;;11.37;2.13;;;;;;;;;;5057365;28;20840;-70
2021/03/08 06:13:10;;;;;;;3.67;2.40;;;;;;;;;;5056792;28;20445;-71
2021/03/08 06:15:38;;;;;;;6.20;2.03;;;;;;;;;;5057179;28;20860;-71
2021/03/08 06:18:11;;;;;;;6.90;2.40;;;;;;;;;;5056655;28;20564;-72
2021/03/08 06:20:42;;;;;;;6.10;2.30;;;;;;;;;;5056350;28;20533;-71
2021/03/08 06:23:11;;;;;;;5.93;2.13;;;;;;;;;;5055989;28;20467;-71
2021/03/08 06:25:41;;;;;;;6.10;2.33;;;;;;;;;;5055517;28;20475;-71
2021/03/08 06:28:12;;;;;;;5.50;2.20;;;;;;;;;;5056371;28;20464;-71
2021/03/08 06:30:39;;;;;;;4.60;1.77;;;;;;;;;;5056076;28;20459;-71
2021/03/08 06:33:09;;;;;;;7.97;3.03;;;;;;;;;;5055470;28;20477;-72
2021/03/08 06:35:40;;;;;;;3.53;2.07;;;;;;;;;;5057060;28;20468;-71
2021/03/08 06:38:12;;;;;;;4.53;2.37;;;;;;;;;;5056161;28;20460;-72
2021/03/08 06:40:41;;;;;;;5.20;2.30;;;;;;;;;;5056734;28;20472;-71
2021/03/08 06:43:09;;;;;;;5.50;3.27;;;;;;;;;;5055889;28;20541;-70
2021/03/08 06:45:36;;;;;;;9.03;2.70;;;;;;;;;;5056624;28;20592;-70
2021/03/08 06:48:07;;;;;;;5.83;2.07;;;;;;;;;;5056748;28;20481;-72
2021/03/08 06:50:39;;;;;;;7.10;2.23;;;;;;;;;;5054645;28;20484;-71
2021/03/08 06:53:06;;;;;;;3.67;1.93;;;;;;;;;;5047878;28;20493;-71
2021/03/08 06:55:34;;;;;;;2.90;2.00;;;;;;;;;;5055149;28;20467;-71
2021/03/08 06:58:20;;;;;;;7.57;3.23;;;;;;;;;;5054766;28;20859;-70
2021/03/08 07:00:48;;;;;;;4.20;2.13;;;;;;;;;;5053876;28;20470;-70
2021/03/08 07:03:36;;;;;;;3.73;1.67;;;;;;;;;;5054577;28;20455;-71
2021/03/08 07:06:17;;;;;;;5.47;2.30;;;;;;;;;;5055426;28;20515;-71
2021/03/08 07:08:49;;;;;;;5.30;2.37;;;;;;;;;;5055694;28;20489;-70
2021/03/08 07:11:42;;;;;;;4.97;2.37;;;;;;;;;;5055518;28;20507;-70
2021/03/08 07:14:17;;;;;;;4.80;2.40;;;;;;;;;;5054712;28;20464;-70
2021/03/08 07:16:47;;;;;;;7.80;3.27;;;;;;;;;;5054347;28;20454;-70
2021/03/08 07:19:14;;;;;;;7.90;2.73;;;;;;;;;;5056132;28;20484;-70
2021/03/08 07:21:43;;;;;;;4.90;3.20;;;;;;;;;;5054817;28;20460;-70
2021/03/08 07:24:14;;;;;;;6.03;2.30;;;;;;;;;;5056462;28;20453;-71
2021/03/08 07:26:57;;;;;;;3.80;2.20;;;;;;;;;;5056069;28;20473;-71
2021/03/08 07:29:28;;;;;;;6.50;2.17;;;;;;;;;;5054234;28;20514;-70
2021/03/08 07:32:12;;;;;;;4.13;1.90;;;;;;;;;;5057465;28;21033;-72
2021/03/08 07:34:52;;;;;;;4.80;2.77;;;;;;;;;;5058143;28;20457;-72
2021/03/08 07:37:29;;;;;;;7.07;2.37;;;;;;;;;;5034741;28;20441;-71
2021/03/08 07:40:20;;;;;;;8.57;1.80;;;;;;;;;;5057708;28;20923;-71
2021/03/08 07:42:51;;;;;;;3.27;1.87;;;;;;;;;;5059338;28;20627;-71
2021/03/08 07:48:38;;;;;;;7.03;1.53;;;;;;;;;;5018710;28;20465;-71
2021/03/08 07:51:08;;;;;;;3.97;2.20;;;;;;;;;;5055505;28;20449;-70
2021/03/08 07:53:37;;;;;;;8.67;2.07;;;;;;;;;;5057034;28;20464;-70
2021/03/08 07:56:09;;;;;;;5.50;1.20;;;;;;;;;;5057932;28;20513;-71
2021/03/08 07:58:38;;;;;;;2.67;1.30;;;;;;;;;;5076639;28;20480;-70
2021/03/08 08:01:06;;;;;;;4.20;1.60;;;;;;;;;;5077545;28;20441;-70
2021/03/08 08:03:34;;;;;;;4.40;1.73;;;;;;;;;;5078085;28;20815;-71
2021/03/08 08:06:02;;;;;;;5.20;1.70;;;;;;;;;;5076701;28;20463;-71
2021/03/08 08:08:33;;;;;;;5.67;2.40;;;;;;;;;;5079037;28;20706;-70
2021/03/08 08:11:03;;;;;;;4.73;1.83;;;;;;;;;;5072829;28;20458;-70
2021/03/08 08:13:31;;;;;;;7.83;3.00;;;;;;;;;;5055056;28;20465;-70
2021/03/08 08:16:00;;;;;;;4.33;1.90;;;;;;;;;;5058058;28;20475;-71
2021/03/08 08:18:28;;;;;;;7.17;2.37;;;;;;;;;;5058669;28;20498;-70
2021/03/08 08:20:59;;;;;;;4.00;2.10;;;;;;;;;;5058071;28;20559;-71
2021/03/08 08:23:33;;;;;;;5.23;1.50;;;;;;;;;;5058455;28;20469;-71
2021/03/08 08:26:29;;;;;;;8.70;2.43;;;;;;;;;;5057711;28;20453;-71
2021/03/08 08:29:13;;;;;;;11.17;2.60;;;;;;;;;;5057500;28;20503;-71
2021/03/08 08:32:04;;;;;;;6.80;2.17;;;;;;;;;;5037310;28;20709;-72
2021/03/08 08:34:45;;;;;;;8.50;2.90;;;;;;;;;;5035976;28;20764;-71
2021/03/08 08:37:13;;;;;;;3.70;1.70;;;;;;;;;;5056281;28;20467;-71
2021/03/08 08:39:41;;;;;;;6.53;2.33;;;;;;;;;;5056862;28;20469;-71
2021/03/08 08:42:38;;;;;;;5.80;1.67;;;;;;;;;;5053524;28;20875;-71
2021/03/08 08:45:27;;;;;;;4.43;2.00;;;;;;;;;;5049407;28;20934;-72
2021/03/08 08:48:04;;;;;;;2.40;1.13;;;;;;;;;;5045789;28;20752;-70
2021/03/08 08:50:45;;;;;;;4.20;1.43;;;;;;;;;;5050001;28;20525;-71
2021/03/08 08:53:15;;;;;;;9.30;2.27;;;;;;;;;;5048969;28;20535;-71
2021/03/08 08:55:49;;;;;;;7.70;2.20;;;;;;;;;;5056921;28;20458;-71
2021/03/08 08:58:27;;;;;;;3.73;1.40;;;;;;;;;;5057892;28;20485;-72
2021/03/08 09:01:22;;;;;;;3.53;1.70;;;;;;;;;;5046548;28;20454;-71
2021/03/08 09:03:58;;;;;;;4.27;1.80;;;;;;;;;;5038294;28;20461;-72
2021/03/08 09:06:43;;;;;;;3.73;1.63;;;;;;;;;;5038322;28;20450;-71
2021/03/08 09:09:20;;;;;;;3.27;1.23;;;;;;;;;;5036335;28;20516;-70
2021/03/08 09:11:52;;;;;;;2.50;1.20;;;;;;;;;;5045833;28;20450;-70
2021/03/08 09:14:33;;;;;;;6.73;1.20;;;;;;;;;;5047726;28;20466;-69
2021/03/08 09:17:22;;;;;;;4.90;1.43;;;;;;;;;;5041029;28;20809;-71
2021/03/08 09:19:51;;;;;;;8.97;1.60;;;;;;;;;;5038969;28;20451;-69
2021/03/08 09:22:36;;;;;;;3.63;1.33;;;;;;;;;;5039578;28;20455;-71
2021/03/08 09:25:14;;;;;;;5.80;1.50;;;;;;;;;;5054754;28;20826;-71
2021/03/08 09:27:45;;;;;;;11.23;1.50;;;;;;;;;;5050034;28;20454;-71
2021/03/08 09:30:18;;;;;;;4.83;1.23;;;;;;;;;;5057545;28;20812;-70
2021/03/08 09:32:51;;;;;;;4.90;1.30;;;;;;;;;;5052467;28;20510;-71
2021/03/08 09:35:21;;;;;;;2.20;0.90;;;;;;;;;;5056395;28;20462;-71
2021/03/08 09:37:50;;;;;;;4.40;1.40;;;;;;;;;;5040506;28;20455;-71
2021/03/08 09:40:20;;;;;;;8.67;1.90;;;;;;;;;;5043217;28;20454;-70
2021/03/08 09:42:51;;;;;;;4.47;1.20;;;;;;;;;;5060501;28;20450;-72
2021/03/08 09:45:24;;;;;;;6.20;1.80;;;;;;;;;;5053873;28;20484;-70
2021/03/08 09:47:53;;;;;;;20.13;3.27;;;;;;;;;;5053677;28;20458;-70
2021/03/08 09:50:25;;;;;;;3.80;1.33;;;;;;;;;;5057219;28;20482;-70
2021/03/08 09:52:54;;;;;;;4.87;1.40;;;;;;;;;;5054564;28;20537;-70
2021/03/08 09:55:34;;;;;;;4.10;1.47;;;;;;;;;;5049880;28;20491;-70
2021/03/08 09:58:09;;;;;;;3.27;1.00;;;;;;;;;;5036460;28;20490;-68
2021/03/08 10:00:38;;;;;;;4.77;1.70;;;;;;;;;;5039068;28;20480;-70
2021/03/08 10:03:08;;;;;;;4.03;0.97;;;;;;;;;;5052324;28;20453;-69
2021/03/08 10:05:41;;;;;;;4.10;1.30;;;;;;;;;;5054377;28;20528;-70
2021/03/08 10:08:10;;;;;;;2.90;1.40;;;;;;;;;;5056058;28;20497;-68
2021/03/08 10:10:38;;;;;;;4.40;1.10;;;;;;;;;;5057848;28;20547;-70
2021/03/08 10:13:05;;;;;;;4.73;1.67;;;;;;;;;;5056482;28;20444;-69
2021/03/08 10:15:48;;;;;;;2.17;0.90;;;;;;;;;;5056963;28;20450;-70
2021/03/08 10:18:16;;;;;;;3.00;1.50;;;;;;;;;;5056810;28;20447;-70
2021/03/08 10:20:51;;;;;;;5.37;1.00;;;;;;;;;;5054876;28;20450;-70
2021/03/08 10:23:22;;;;;;;2.73;1.20;;;;;;;;;;5054914;28;20451;-70
2021/03/08 10:25:50;;;;;;;4.43;1.03;;;;;;;;;;5054781;28;20451;-70
2021/03/08 10:28:19;;;;;;;3.50;0.80;;;;;;;;;;5054814;28;20626;-72
2021/03/08 10:30:49;;;;;;;4.63;1.70;;;;;;;;;;5054856;28;20494;-71
2021/03/08 10:33:23;;;;;;;3.50;1.10;;;;;;;;;;5050436;28;20458;-71
2021/03/08 10:35:53;;;;;;;2.20;0.90;;;;;;;;;;5054484;28;20721;-70
2021/03/08 10:38:25;;;;;;;6.50;1.03;;;;;;;;;;5056520;28;20454;-70
2021/03/08 10:40:55;;;;;;;3.93;1.30;;;;;;;;;;5054095;28;20889;-71
2021/03/08 10:43:23;;;;;;;2.33;0.93;;;;;;;;;;5055331;28;20933;-70
2021/03/08 10:46:00;;;;;;;3.70;0.80;;;;;;;;;;5054396;28;20522;-71
2021/03/08 10:48:30;;;;;;;3.43;1.57;;;;;;;;;;5054843;28;20471;-70
2021/03/08 10:51:03;;;;;;;1.93;0.80;;;;;;;;;;5056409;28;20493;-70
2021/03/08 10:53:32;;;;;;;4.53;1.60;;;;;;;;;;5059095;28;20465;-71
2021/03/08 10:56:00;;;;;;;3.50;1.37;;;;;;;;;;5055579;28;20450;-71
2021/03/08 10:58:37;;;;;;;6.37;2.27;;;;;;;;;;5055370;28;20446;-72
2021/03/08 11:01:11;;;;;;;3.00;1.10;;;;;;;;;;5054381;28;20451;-71
2021/03/08 11:03:41;;;;;;;4.13;1.23;;;;;;;;;;5054636;28;20477;-72
2021/03/08 11:06:11;;;;;;;3.57;1.00;;;;;;;;;;5053750;28;20450;-71
2021/03/08 11:08:47;;;;;;;2.77;1.00;;;;;;;;;;5054005;28;20812;-72
2021/03/08 11:11:23;;;;;;;4.83;1.60;;;;;;;;;;5054805;28;20475;-71
2021/03/08 11:13:51;;;;;;;2.47;0.80;;;;;;;;;;5056797;28;20631;-71
2021/03/08 11:16:25;;;;;;;2.63;1.00;;;;;;;;;;5055466;28;20455;-71
2021/03/08 11:18:56;;;;;;;4.83;2.20;;;;;;;;;;5056420;28;20459;-71
2021/03/08 11:21:31;;;;;;;1.50;0.70;;;;;;;;;;5053002;28;20478;-70
2021/03/08 11:24:15;;;;;;;2.03;0.90;;;;;;;;;;5043935;28;20485;-72
2021/03/08 11:26:45;;;;;;;1.60;0.87;;;;;;;;;;5059369;28;21027;-71
2021/03/08 11:29:25;;;;;;;2.60;1.00;;;;;;;;;;5059056;28;20482;-71
2021/03/08 11:32:02;;;;;;;5.87;1.20;;;;;;;;;;5059717;28;20624;-71
2021/03/08 11:34:42;;;;;;;3.10;1.27;;;;;;;;;;5056030;28;20474;-72
2021/03/08 11:37:14;;;;;;;3.70;1.10;;;;;;;;;;5059335;28;20452;-71
2021/03/08 11:39:42;;;;;;;2.70;0.77;;;;;;;;;;5059046;28;20491;-71
2021/03/08 11:42:12;;;;;;;1.90;0.70;;;;;;;;;;5052513;28;20580;-71
2021/03/08 11:44:43;;;;;;;1.43;0.60;;;;;;;;;;5053278;28;20551;-71
2021/03/08 11:47:13;;;;;;;2.50;0.90;;;;;;;;;;5046037;28;20535;-72
2021/03/08 11:49:41;;;;;;;4.30;2.13;;;;;;;;;;5058281;28;20482;-72
2021/03/08 11:52:10;;;;;;;3.93;0.87;;;;;;;;;;5057204;28;20543;-71
2021/03/08 11:54:39;;;;;;;2.10;0.93;;;;;;;;;;5060117;28;20462;-71
2021/03/08 11:57:08;;;;;;;2.57;1.20;;;;;;;;;;5058000;28;20458;-70
2021/03/08 11:59:37;;;;;;;6.00;1.47;;;;;;;;;;5056601;28;20480;-71
2021/03/08 12:02:06;;;;;;;2.63;0.80;;;;;;;;;;5058374;28;20532;-69
2021/03/08 12:04:35;;;;;;;2.57;0.70;;;;;;;;;;5058516;28;20460;-70
2021/03/08 12:07:02;;;;;;;2.43;0.97;;;;;;;;;;5058240;28;20438;-70
2021/03/08 12:09:38;;;;;;;2.93;0.77;;;;;;;;;;5057590;28;20499;-70
2021/03/08 12:12:09;;;;;;;5.80;1.13;;;;;;;;;;5053034;28;20492;-69
2021/03/08 12:14:37;;;;;;;2.33;0.80;;;;;;;;;;5057228;28;20469;-70
2021/03/08 12:17:12;;;;;;;4.10;1.20;;;;;;;;;;5058936;28;20466;-69
2021/03/08 12:19:41;;;;;;;6.63;1.63;;;;;;;;;;5056790;28;20742;-71
2021/03/08 12:22:08;;;;;;;4.57;1.17;;;;;;;;;;5048482;28;20464;-70
2021/03/08 12:24:36;;;;;;;2.90;1.03;;;;;;;;;;5037154;28;20463;-70
2021/03/08 12:27:06;;;;;;;2.80;0.93;;;;;;;;;;5051786;28;20458;-70
2021/03/08 12:29:35;;;;;;;2.47;0.90;;;;;;;;;;5057063;28;20494;-70
2021/03/08 12:32:14;;;;;;;3.20;0.70;;;;;;;;;;5058022;28;20522;-71
2021/03/08 12:34:46;;;;;;;3.10;1.03;;;;;;;;;;5049572;28;20477;-70
2021/03/08 12:37:13;;;;;;;1.80;0.70;;;;;;;;;;5058551;28;20731;-71
2021/03/08 12:39:43;;;;;;;3.10;0.97;;;;;;;;;;5056828;28;20465;-70
2021/03/08 12:42:11;;;;;;;2.07;0.90;;;;;;;;;;5057949;28;20726;-71
2021/03/08 12:44:38;;;;;;;2.10;0.80;;;;;;;;;;5057883;28;20462;-70
2021/03/08 12:47:06;;;;;;;3.40;0.90;;;;;;;;;;5057158;28;20472;-70
2021/03/08 12:49:33;;;;;;;3.20;0.83;;;;;;;;;;5057247;28;20998;-70
2021/03/08 12:52:02;;;;;;;3.10;0.80;;;;;;;;;;5057414;28;20480;-71
2021/03/08 12:54:30;;;;;;;2.63;0.60;;;;;;;;;;5056536;28;20450;-71
2021/03/08 12:57:06;;;;;;;2.30;0.80;;;;;;;;;;5057995;28;20453;-71
2021/03/08 13:02:20;;;;;;;5.03;0.80;;;;;;;;;;5054372;28;20458;-71
2021/03/08 13:04:53;;;;;;;2.50;0.83;;;;;;;;;;5057754;28;20463;-70
2021/03/08 13:07:21;;;;;;;1.80;0.60;;;;;;;;;;5057720;28;20486;-70
2021/03/08 13:09:53;;;;;;;3.23;0.80;;;;;;;;;;5059189;28;20554;-71
2021/03/08 13:12:36;;;;;;;3.43;1.30;;;;;;;;;;5057026;28;20446;-70
2021/03/08 13:15:04;;;;;;;2.83;1.10;;;;;;;;;;5056338;28;20509;-71
2021/03/08 13:17:31;;;;;;;5.63;1.10;;;;;;;;;;5056058;28;20465;-71
2021/03/08 13:19:59;;;;;;;3.20;1.23;;;;;;;;;;5056102;28;20464;-71
2021/03/08 13:22:30;;;;;;;6.27;0.83;;;;;;;;;;5070348;28;20502;-69
2021/03/08 13:24:59;;;;;;;3.37;1.23;;;;;;;;;;5058491;28;20524;-70
2021/03/08 13:30:11;;;;;;;2.60;0.70;;;;;;;;;;5055939;28;20993;-71
2021/03/08 13:32:38;;;;;;;3.10;1.20;;;;;;;;;;5052493;28;20497;-70
2021/03/08 13:35:07;;;;;;;5.33;1.03;;;;;;;;;;5055482;28;20450;-69
2021/03/08 13:37:36;;;;;;;2.07;0.60;;;;;;;;;;5057192;28;20551;-70
2021/03/08 13:40:12;;;;;;;2.80;0.77;;;;;;;;;;5059927;28;20543;-70
2021/03/08 13:42:40;;;;;;;4.03;0.93;;;;;;;;;;5060367;28;20864;-72
2021/03/08 13:45:08;;;;;;;2.73;1.20;;;;;;;;;;5057742;28;20467;-69
2021/03/08 13:47:36;;;;;;;2.77;0.70;;;;;;;;;;5056760;28;20462;-71
2021/03/08 13:50:04;;;;;;;3.07;0.93;;;;;;;;;;5057592;28;20482;-69
2021/03/08 13:52:32;;;;;;;6.40;1.57;;;;;;;;;;5056868;28;20538;-70
2021/03/08 13:55:05;;;;;;;6.23;3.37;;;;;;;;;;5056222;28;20449;-70
2021/03/08 13:57:35;;;;;;;2.30;0.80;;;;;;;;;;5056896;28;20519;-72
2021/03/08 14:00:10;;;;;;;3.80;0.90;;;;;;;;;;5056459;28;20444;-70
2021/03/08 14:02:39;;;;;;;3.57;1.10;;;;;;;;;;5037430;28;20462;-70
2021/03/08 14:05:08;;;;;;;3.60;1.10;;;;;;;;;;5037395;28;20448;-71
2021/03/08 14:07:36;;;;;;;2.47;0.83;;;;;;;;;;5037576;28;20441;-70
2021/03/08 14:10:05;;;;;;;3.13;0.83;;;;;;;;;;5036980;28;20961;-71
2021/03/08 14:12:35;;;;;;;4.77;1.03;;;;;;;;;;5054306;28;20451;-70
2021/03/08 14:15:05;;;;;;;3.23;0.70;;;;;;;;;;5058145;28;20457;-70
2021/03/08 14:17:33;;;;;;;1.90;0.60;;;;;;;;;;5042093;28;20464;-69
2021/03/08 14:20:00;;;;;;;2.00;0.60;;;;;;;;;;5036475;28;20496;-70
2021/03/08 14:22:29;;;;;;;2.53;0.63;;;;;;;;;;5039002;28;20448;-70
2021/03/08 14:25:01;;;;;;;2.27;0.60;;;;;;;;;;5051028;28;20470;-70
2021/03/08 14:27:38;;;;;;;4.90;2.03;;;;;;;;;;5057853;28;20544;-71
2021/03/08 14:30:13;;;;;;;4.57;0.90;;;;;;;;;;5057814;28;20485;-70
2021/03/08 14:32:43;;;;;;;6.53;1.77;;;;;;;;;;5055871;28;20723;-71
2021/03/08 14:35:24;;;;;;;3.47;1.50;;;;;;;;;;5054467;28;20441;-71
2021/03/08 14:37:52;;;;;;;3.90;1.00;;;;;;;;;;5037171;28;20495;-71
2021/03/08 14:40:20;;;;;;;3.83;1.20;;;;;;;;;;5044163;28;20463;-70
2021/03/08 14:43:07;;;;;;;2.40;0.77;;;;;;;;;;5055907;28;20489;-72
2021/03/08 14:45:57;;;;;;;3.63;0.80;;;;;;;;;;5056622;28;20527;-70
2021/03/08 14:48:58;;;;;;;2.60;1.27;;;;;;;;;;5056619;28;20462;-71
2021/03/08 14:51:42;;;;;;;5.07;1.50;;;;;;;;;;5039556;28;20446;-70
2021/03/08 14:54:11;;;;;;;2.77;0.83;;;;;;;;;;5053524;28;20460;-71
2021/03/08 14:56:41;;;;;;;2.57;0.80;;;;;;;;;;5054458;28;20509;-71
2021/03/08 14:59:10;;;;;;;3.27;1.30;;;;;;;;;;5055243;28;20454;-70
2021/03/08 15:01:37;;;;;;;3.17;1.17;;;;;;;;;;5054671;28;20436;-71
2021/03/08 15:04:05;;;;;;;3.50;1.30;;;;;;;;;;5055866;28;21025;-70
2021/03/08 15:06:32;;;;;;;3.70;1.00;;;;;;;;;;5053912;28;20452;-71
2021/03/08 15:09:05;;;;;;;3.90;1.50;;;;;;;;;;5055142;28;20873;-71
2021/03/08 15:11:35;;;;;;;4.57;1.00;;;;;;;;;;5054916;28;20935;-70
2021/03/08 15:14:03;;;;;;;3.60;1.20;;;;;;;;;;5055013;28;20512;-70
2021/03/08 15:16:42;;;;;;;3.17;0.90;;;;;;;;;;5052880;28;20454;-70
2021/03/08 15:19:14;;;;;;;2.27;0.80;;;;;;;;;;5055491;28;20490;-70
2021/03/08 15:21:49;;;;;;;3.60;1.00;;;;;;;;;;5055738;28;20455;-70